Time;durP1;ratioP1;P1;durP2;ratioP2;P2;SDS_P1;SDS_P2;PMS_P1;PMS_P2;Temp;Humidity;BMP_temperature;BMP_pressure;BME280_temperature;BME280_humidity;BME280_pressure;Samples;Min_cycle;Max_cycle;Signal;HPM_P1;HPM_P2
2023/01/13 00:09:05;;;;;;;27.00;13.15;;;;;;;;;;20829667;28;20060;-62
2023/01/13 00:19:08;;;;;;;33.65;11.65;;;;;;;;;;20827938;28;20060;-61
2023/01/13 00:29:10;;;;;;;31.50;13.10;;;;;;;;;;20828223;28;20045;-63
2023/01/13 00:39:12;;;;;;;33.03;14.38;;;;;;;;;;20832798;28;20115;-62
2023/01/13 00:49:14;;;;;;;29.83;12.20;;;;;;;;;;20841699;28;20459;-63
2023/01/13 00:59:17;;;;;;;22.15;11.55;;;;;;;;;;20840527;28;20053;-62
2023/01/13 01:09:19;;;;;;;22.70;10.43;;;;;;;;;;20840224;28;20513;-62
2023/01/13 01:19:21;;;;;;;21.83;11.68;;;;;;;;;;20838671;28;20064;-60
2023/01/13 01:29:22;;;;;;;22.48;11.57;;;;;;;;;;20839576;28;20053;-62
2023/01/13 01:39:24;;;;;;;25.38;11.43;;;;;;;;;;20838067;28;20414;-61
2023/01/13 01:49:29;;;;;;;27.30;11.40;;;;;;;;;;20837172;28;20486;-62
2023/01/13 01:59:31;;;;;;;28.77;12.02;;;;;;;;;;20836458;28;20132;-61
2023/01/13 02:09:34;;;;;;;29.42;12.82;;;;;;;;;;20835283;28;20053;-64
2023/01/13 02:19:43;;;;;;;26.70;12.15;;;;;;;;;;20834232;28;20141;-62
2023/01/13 02:40:14;;;;;;;29.60;12.13;;;;;;;;;;20832879;28;20049;-62
2023/01/13 02:50:22;;;;;;;25.02;12.85;;;;;;;;;;20832282;28;20141;-62
2023/01/13 03:00:44;;;;;;;25.55;11.82;;;;;;;;;;20832110;28;20061;-61
2023/01/13 03:10:56;;;;;;;26.90;12.15;;;;;;;;;;20831629;28;20076;-62
2023/01/13 03:21:11;;;;;;;21.33;10.93;;;;;;;;;;20829977;28;20187;-62
2023/01/13 03:31:18;;;;;;;24.65;12.27;;;;;;;;;;20830128;28;20136;-62
2023/01/13 03:41:50;;;;;;;26.52;12.25;;;;;;;;;;20830496;28;20049;-62
2023/01/13 03:51:58;;;;;;;25.50;11.52;;;;;;;;;;20829516;28;20132;-62
2023/01/13 04:02:20;;;;;;;23.95;12.23;;;;;;;;;;20829284;28;20050;-62
2023/01/13 04:13:00;;;;;;;25.88;11.13;;;;;;;;;;20834263;28;20056;-63
2023/01/13 04:23:22;;;;;;;22.77;10.57;;;;;;;;;;20843506;28;20049;-62
2023/01/13 04:33:43;;;;;;;26.50;11.57;;;;;;;;;;20843385;28;20049;-62
2023/01/13 04:44:05;;;;;;;25.98;12.05;;;;;;;;;;20843713;28;20425;-62
2023/01/13 04:54:26;;;;;;;27.08;11.70;;;;;;;;;;20842026;28;20397;-62
2023/01/13 05:04:46;;;;;;;20.52;10.02;;;;;;;;;;20840582;28;20053;-63
2023/01/13 05:25:38;;;;;;;20.53;10.63;;;;;;;;;;20586766;28;20089;-66
2023/01/13 05:35:42;;;;;;;30.05;12.60;;;;;;;;;;20586511;28;20058;-67
2023/01/13 05:45:50;;;;;;;33.42;14.43;;;;;;;;;;20586309;28;20046;-65
2023/01/13 05:55:51;;;;;;;31.27;14.25;;;;;;;;;;20657035;28;20073;-62
2023/01/13 06:06:01;;;;;;;33.40;15.25;;;;;;;;;;20901527;28;20394;-62
2023/01/13 06:16:03;;;;;;;34.60;14.60;;;;;;;;;;20917369;28;20057;-64
2023/01/13 06:26:15;;;;;;;30.10;15.10;;;;;;;;;;20917072;28;20049;-62
2023/01/13 06:36:22;;;;;;;33.05;15.55;;;;;;;;;;20915675;28;20485;-62
2023/01/13 06:46:24;;;;;;;31.00;15.20;;;;;;;;;;20915002;28;20067;-62
2023/01/13 06:56:26;;;;;;;30.50;14.13;;;;;;;;;;20915328;28;20045;-61
2023/01/13 07:06:28;;;;;;;37.08;15.35;;;;;;;;;;20913761;28;20132;-63
2023/01/13 07:16:30;;;;;;;34.22;16.17;;;;;;;;;;20913449;28;20413;-63
2023/01/13 07:26:32;;;;;;;38.00;16.23;;;;;;;;;;20894772;28;20053;-61
2023/01/13 07:36:34;;;;;;;30.88;16.38;;;;;;;;;;20912890;28;20090;-63
2023/01/13 07:46:39;;;;;;;32.90;16.42;;;;;;;;;;20916412;28;20045;-64
2023/01/13 07:56:41;;;;;;;33.92;16.55;;;;;;;;;;20929088;28;20485;-64
2023/01/13 08:06:43;;;;;;;30.80;16.20;;;;;;;;;;20928212;28;20127;-63
2023/01/13 08:16:47;;;;;;;26.73;14.20;;;;;;;;;;20926210;28;20057;-62
2023/01/13 08:26:49;;;;;;;29.70;14.68;;;;;;;;;;20925689;28;20559;-61
2023/01/13 08:36:51;;;;;;;24.33;13.25;;;;;;;;;;20925396;28;20098;-61
2023/01/13 08:46:53;;;;;;;26.38;13.43;;;;;;;;;;20924011;28;20454;-66
2023/01/13 08:56:55;;;;;;;26.65;13.48;;;;;;;;;;20923690;28;20052;-66
2023/01/13 09:06:57;;;;;;;29.10;14.82;;;;;;;;;;20923511;28;20453;-67
2023/01/13 09:16:59;;;;;;;28.35;15.93;;;;;;;;;;20922458;28;20080;-68
2023/01/13 09:27:02;;;;;;;27.27;14.50;;;;;;;;;;20904188;28;20041;-70
2023/01/13 09:37:05;;;;;;;30.60;16.15;;;;;;;;;;20922360;28;20440;-64
2023/01/13 09:47:11;;;;;;;32.33;15.88;;;;;;;;;;20920217;28;20094;-64
2023/01/13 09:57:15;;;;;;;29.67;15.70;;;;;;;;;;20919395;28;20413;-63
2023/01/13 10:07:17;;;;;;;24.48;14.32;;;;;;;;;;20918700;28;20052;-63
2023/01/13 10:17:36;;;;;;;33.28;15.73;;;;;;;;;;20917449;28;20150;-65
2023/01/13 10:27:38;;;;;;;33.92;17.50;;;;;;;;;;20916272;28;20143;-62
2023/01/13 10:37:40;;;;;;;29.33;15.68;;;;;;;;;;20916076;28;20099;-63
2023/01/13 10:47:42;;;;;;;30.42;15.00;;;;;;;;;;20915078;28;20443;-62
2023/01/13 10:57:44;;;;;;;30.23;15.70;;;;;;;;;;20914007;28;20056;-62
2023/01/13 11:07:53;;;;;;;26.50;14.18;;;;;;;;;;20914331;28;20398;-62
2023/01/13 11:18:00;;;;;;;24.17;14.00;;;;;;;;;;20894849;28;20464;-63
2023/01/13 11:28:26;;;;;;;24.85;13.20;;;;;;;;;;20910769;28;20053;-71
2023/01/13 11:38:28;;;;;;;28.35;15.38;;;;;;;;;;20899242;28;20139;-65
2023/01/13 11:48:32;;;;;;;24.05;12.73;;;;;;;;;;20892521;28;20091;-69
2023/01/13 11:58:46;;;;;;;28.75;15.00;;;;;;;;;;20911237;28;20440;-61
2023/01/13 12:08:54;;;;;;;24.15;14.15;;;;;;;;;;20911803;28;20436;-64
2023/01/13 12:19:06;;;;;;;23.42;13.70;;;;;;;;;;20910635;28;20056;-64
2023/01/13 12:29:14;;;;;;;27.80;13.60;;;;;;;;;;20910439;28;20045;-67
2023/01/13 12:39:35;;;;;;;26.40;13.85;;;;;;;;;;20922139;28;20131;-70
2023/01/13 12:49:37;;;;;;;25.80;14.27;;;;;;;;;;20925558;28;20493;-70
2023/01/13 12:59:40;;;;;;;29.88;15.38;;;;;;;;;;20923596;28;20064;-68
2023/01/13 13:09:43;;;;;;;25.70;13.45;;;;;;;;;;20924097;28;20045;-61
2023/01/13 13:19:46;;;;;;;28.88;14.85;;;;;;;;;;20922216;28;20064;-65
2023/01/13 13:29:51;;;;;;;29.33;14.68;;;;;;;;;;20915619;28;20644;-71
2023/01/13 13:50:19;;;;;;;27.00;14.63;;;;;;;;;;20919839;28;20439;-66
2023/01/13 14:00:29;;;;;;;28.23;15.30;;;;;;;;;;20918895;28;20049;-71
2023/01/13 14:10:33;;;;;;;25.98;14.48;;;;;;;;;;20918393;28;20049;-64
2023/01/13 14:20:36;;;;;;;26.48;13.52;;;;;;;;;;20917880;28;20088;-61
2023/01/13 14:30:38;;;;;;;26.00;13.85;;;;;;;;;;20917253;28;20049;-63
2023/01/13 14:40:44;;;;;;;28.67;14.18;;;;;;;;;;20916991;28;20048;-64
2023/01/13 14:50:46;;;;;;;23.88;14.50;;;;;;;;;;20915933;28;20048;-68
2023/01/13 15:00:49;;;;;;;23.25;12.23;;;;;;;;;;20913735;28;20058;-63
2023/01/13 15:10:58;;;;;;;27.90;14.50;;;;;;;;;;20915447;28;20055;-63
2023/01/13 15:21:00;;;;;;;26.80;14.87;;;;;;;;;;20914909;28;20463;-71
2023/01/13 15:31:02;;;;;;;26.08;13.63;;;;;;;;;;20913718;28;20056;-72
2023/01/13 15:41:04;;;;;;;26.27;13.50;;;;;;;;;;20913378;28;20053;-63
2023/01/13 15:51:06;;;;;;;26.08;13.85;;;;;;;;;;20913110;28;20045;-63
2023/01/13 16:01:09;;;;;;;21.55;12.52;;;;;;;;;;20913530;28;20408;-65
2023/01/13 16:11:11;;;;;;;23.77;12.73;;;;;;;;;;20920300;28;20132;-63
2023/01/13 16:21:14;;;;;;;22.33;12.50;;;;;;;;;;20927057;28;20420;-64
2023/01/13 16:31:30;;;;;;;21.00;11.98;;;;;;;;;;20919806;28;20443;-58
2023/01/13 16:41:33;;;;;;;21.38;11.45;;;;;;;;;;20927975;28;20052;-72
2023/01/13 16:51:35;;;;;;;14.38;8.23;;;;;;;;;;20922000;28;20148;-62
2023/01/13 17:01:39;;;;;;;28.27;16.20;;;;;;;;;;20920044;28;20041;-65
2023/01/13 17:11:41;;;;;;;31.45;16.75;;;;;;;;;;20917932;28;20073;-66
2023/01/13 17:21:45;;;;;;;29.25;14.98;;;;;;;;;;20868406;28;20053;-68
2023/01/13 17:31:48;;;;;;;31.70;15.18;;;;;;;;;;20896605;28;20119;-70
2023/01/13 17:41:50;;;;;;;32.67;16.00;;;;;;;;;;20916603;28;20513;-69
2023/01/13 17:51:53;;;;;;;19.85;10.45;;;;;;;;;;20876200;28;20141;-59
2023/01/13 18:01:55;;;;;;;19.33;10.20;;;;;;;;;;20869915;28;20057;-68
2023/01/13 18:11:58;;;;;;;18.38;10.50;;;;;;;;;;20915447;28;20053;-62
2023/01/13 18:32:23;;;;;;;22.60;13.10;;;;;;;;;;20917089;28;20080;-63
2023/01/13 18:52:45;;;;;;;31.58;15.48;;;;;;;;;;20915247;28;20053;-61
2023/01/13 19:02:49;;;;;;;21.85;11.00;;;;;;;;;;20913935;28;20049;-61
2023/01/13 19:12:51;;;;;;;17.10;10.63;;;;;;;;;;20912560;28;20092;-63
2023/01/13 19:22:53;;;;;;;20.38;10.93;;;;;;;;;;20912008;28;20089;-64
2023/01/13 19:32:56;;;;;;;22.75;10.85;;;;;;;;;;20913039;28;20059;-62
2023/01/13 19:53:18;;;;;;;22.10;13.98;;;;;;;;;;20929592;28;20139;-66
2023/01/13 20:03:24;;;;;;;24.73;13.80;;;;;;;;;;20921521;28;20048;-61
2023/01/13 20:13:26;;;;;;;33.40;16.02;;;;;;;;;;20928305;28;20473;-59
2023/01/13 20:23:28;;;;;;;27.55;14.43;;;;;;;;;;20926731;28;20090;-58
2023/01/13 20:33:30;;;;;;;27.88;15.32;;;;;;;;;;20926106;28;20053;-65
2023/01/13 20:43:32;;;;;;;28.40;13.82;;;;;;;;;;20925358;28;20519;-66
2023/01/13 20:53:34;;;;;;;24.65;11.85;;;;;;;;;;20924906;28;20053;-59
2023/01/13 21:03:37;;;;;;;24.92;12.20;;;;;;;;;;20929634;28;20052;-61
2023/01/13 21:24:00;;;;;;;18.73;10.70;;;;;;;;;;20923349;28;20053;-69
2023/01/13 21:34:03;;;;;;;22.52;11.27;;;;;;;;;;20922389;28;20068;-69
2023/01/13 21:54:27;;;;;;;22.00;11.52;;;;;;;;;;20920708;28;20553;-60
2023/01/13 22:04:29;;;;;;;20.65;10.07;;;;;;;;;;20901504;28;20140;-61
2023/01/13 22:14:32;;;;;;;24.27;13.20;;;;;;;;;;20919953;28;20084;-70
2023/01/13 22:24:34;;;;;;;17.33;9.95;;;;;;;;;;20918618;28;20477;-66
2023/01/13 22:34:36;;;;;;;28.63;15.65;;;;;;;;;;20917386;28;20492;-62
2023/01/13 22:44:38;;;;;;;20.55;11.60;;;;;;;;;;20916509;28;20128;-66
2023/01/13 22:54:40;;;;;;;19.42;10.48;;;;;;;;;;20915426;28;20053;-70
2023/01/13 23:04:43;;;;;;;17.48;9.88;;;;;;;;;;20914509;28;20049;-63
2023/01/13 23:14:45;;;;;;;20.88;9.70;;;;;;;;;;20915166;28;20528;-58
2023/01/13 23:24:47;;;;;;;22.38;10.55;;;;;;;;;;20913009;28;20053;-63
2023/01/13 23:34:49;;;;;;;21.80;10.77;;;;;;;;;;20913491;28;20055;-66
2023/01/13 23:44:51;;;;;;;28.80;15.63;;;;;;;;;;20913008;28;20052;-59
2023/01/13 23:54:52;;;;;;;31.08;16.35;;;;;;;;;;20912939;28;20144;-66
